createdAt,value
2018-09-25T00:00:39.743Z,99.90
2018-09-25T00:03:13.178Z,99.90
2018-09-25T00:05:46.573Z,99.90
2018-09-25T00:11:13.600Z,99.90
2018-09-25T00:13:47.198Z,99.90
2018-09-25T00:16:20.658Z,99.90
2018-09-25T00:18:54.070Z,99.90
2018-09-25T00:21:27.658Z,99.90
2018-09-25T00:24:01.073Z,99.90
2018-09-25T00:26:34.567Z,99.90
2018-09-25T00:29:07.984Z,99.90
2018-09-25T00:31:41.399Z,99.90
2018-09-25T00:34:14.854Z,99.90
2018-09-25T00:36:48.280Z,99.90
2018-09-25T00:39:21.767Z,99.90
2018-09-25T00:41:55.551Z,99.90
2018-09-25T00:44:29.061Z,99.90
2018-09-25T00:47:02.585Z,99.90
2018-09-25T00:49:36.022Z,99.90
2018-09-25T00:52:09.498Z,99.90
2018-09-25T00:54:43.059Z,99.90
2018-09-25T00:57:16.666Z,99.90
2018-09-25T00:59:50.171Z,99.90
2018-09-25T01:02:23.719Z,99.90
2018-09-25T01:04:57.333Z,99.90
2018-09-25T01:07:30.781Z,99.90
2018-09-25T01:10:04.262Z,99.90
2018-09-25T01:12:37.845Z,99.90
2018-09-25T01:15:11.517Z,99.90
2018-09-25T01:17:45.142Z,99.90
2018-09-25T01:20:18.626Z,99.90
2018-09-25T01:22:52.123Z,99.90
2018-09-25T01:25:25.634Z,99.90
2018-09-25T01:27:59.231Z,99.90
2018-09-25T01:30:32.754Z,99.90
2018-09-25T01:33:06.366Z,99.90
2018-09-25T01:35:39.905Z,99.90
2018-09-25T01:38:13.352Z,99.90
2018-09-25T01:40:46.794Z,99.90
2018-09-25T01:43:20.512Z,99.90
2018-09-25T01:45:53.961Z,99.90
2018-09-25T01:48:27.497Z,99.90
2018-09-25T01:51:00.901Z,99.90
2018-09-25T01:53:34.248Z,99.90
2018-09-25T01:56:07.809Z,99.90
2018-09-25T01:58:41.258Z,99.90
2018-09-25T02:01:14.810Z,99.90
2018-09-25T02:03:48.345Z,99.90
2018-09-25T02:06:21.981Z,99.90
2018-09-25T02:08:55.554Z,99.90
2018-09-25T02:11:29.270Z,99.90
2018-09-25T02:14:02.904Z,99.90
2018-09-25T02:16:36.370Z,99.90
2018-09-25T02:19:09.877Z,99.90
2018-09-25T02:21:43.305Z,99.90
2018-09-25T02:24:16.794Z,99.90
2018-09-25T02:26:50.275Z,99.90
2018-09-25T02:29:23.975Z,99.90
2018-09-25T02:31:57.633Z,99.90
2018-09-25T02:34:31.164Z,99.90
2018-09-25T02:37:04.732Z,99.90
2018-09-25T02:39:38.258Z,99.90
2018-09-25T02:42:11.729Z,99.90
2018-09-25T02:44:45.205Z,99.90
2018-09-25T02:47:18.850Z,99.90
2018-09-25T02:49:52.458Z,99.90
2018-09-25T02:52:26.039Z,99.90
2018-09-25T02:54:59.530Z,99.90
2018-09-25T02:57:33.122Z,99.90
2018-09-25T03:00:06.580Z,99.90
2018-09-25T03:02:40.237Z,99.90
2018-09-25T03:05:13.655Z,99.90
2018-09-25T03:07:46.957Z,99.90
2018-09-25T03:10:20.382Z,99.90
2018-09-25T03:12:53.922Z,99.90
2018-09-25T03:15:27.419Z,99.90
2018-09-25T03:18:01.059Z,99.90
2018-09-25T03:20:34.581Z,99.90
2018-09-25T03:23:08.066Z,99.90
2018-09-25T03:25:41.662Z,99.90
2018-09-25T03:28:15.199Z,99.90
2018-09-25T03:33:41.494Z,99.90
2018-09-25T03:36:15.084Z,99.90
2018-09-25T03:38:48.577Z,99.90
2018-09-25T03:41:21.978Z,99.90
2018-09-25T03:43:55.609Z,99.90
2018-09-25T03:46:29.106Z,99.90
2018-09-25T03:49:02.693Z,99.90
2018-09-25T03:51:36.137Z,99.90
2018-09-25T03:54:09.708Z,99.90
2018-09-25T03:56:43.072Z,99.90
2018-09-25T03:59:16.665Z,99.90
2018-09-25T04:01:50.136Z,99.90
2018-09-25T04:04:23.796Z,99.90
2018-09-25T04:06:57.314Z,99.90
2018-09-25T04:09:31.005Z,99.90
2018-09-25T04:12:04.574Z,99.90
2018-09-25T04:14:37.974Z,99.90
2018-09-25T04:17:11.386Z,99.90
2018-09-25T04:19:44.918Z,99.90
2018-09-25T04:22:18.486Z,99.90
2018-09-25T04:24:51.954Z,99.90
2018-09-25T04:27:25.547Z,99.90
2018-09-25T04:29:59.022Z,99.90
2018-09-25T04:32:32.457Z,99.90
2018-09-25T04:35:06.010Z,99.90
2018-09-25T04:37:39.694Z,99.90
2018-09-25T04:40:13.045Z,99.90
2018-09-25T04:42:46.578Z,99.90
2018-09-25T04:45:20.007Z,99.90
2018-09-25T04:47:53.563Z,99.90
2018-09-25T04:50:27.186Z,99.90
2018-09-25T04:53:00.702Z,99.90
2018-09-25T04:55:34.254Z,99.90
2018-09-25T04:58:07.794Z,99.90
2018-09-25T05:00:41.345Z,99.90
2018-09-25T05:03:14.801Z,99.90
2018-09-25T05:05:48.380Z,99.90
2018-09-25T05:08:21.829Z,99.90
2018-09-25T05:10:55.282Z,99.90
2018-09-25T05:13:28.790Z,99.90
2018-09-25T05:16:02.227Z,99.90
2018-09-25T05:18:35.653Z,99.90
2018-09-25T05:21:09.091Z,99.90
2018-09-25T05:23:42.550Z,99.90
2018-09-25T05:26:16.020Z,99.90
2018-09-25T05:28:49.596Z,99.90
2018-09-25T05:31:23.149Z,99.90
2018-09-25T05:33:56.815Z,99.90
2018-09-25T05:36:30.290Z,99.90
2018-09-25T05:39:03.749Z,99.90
2018-09-25T05:41:37.193Z,99.90
2018-09-25T05:44:10.733Z,99.90
2018-09-25T05:46:44.220Z,99.90
2018-09-25T05:49:17.668Z,99.90
2018-09-25T05:51:52.847Z,99.90
2018-09-25T05:54:26.606Z,99.90
2018-09-25T05:57:00.423Z,99.90
2018-09-25T05:59:34.002Z,99.90
2018-09-25T06:02:07.489Z,99.90
2018-09-25T06:04:40.826Z,99.90
2018-09-25T06:07:14.122Z,99.90
2018-09-25T06:09:47.735Z,99.90
2018-09-25T06:12:21.150Z,99.90
2018-09-25T06:14:54.781Z,99.90
2018-09-25T06:17:28.492Z,99.90
2018-09-25T06:20:02.218Z,99.90
2018-09-25T06:22:35.716Z,99.90
2018-09-25T06:25:09.157Z,99.90
2018-09-25T06:27:42.634Z,99.90
2018-09-25T06:30:16.143Z,99.90
2018-09-25T06:32:49.625Z,99.90
2018-09-25T06:35:23.286Z,99.90
2018-09-25T06:37:56.724Z,99.90
2018-09-25T06:40:30.161Z,99.90
2018-09-25T06:43:03.634Z,99.90
2018-09-25T06:45:37.086Z,99.90
2018-09-25T06:48:10.543Z,99.90
2018-09-25T06:50:44.209Z,99.90
2018-09-25T06:53:17.653Z,99.90
2018-09-25T06:55:51.267Z,99.90
2018-09-25T06:58:24.785Z,99.90
2018-09-25T07:00:58.289Z,99.90
2018-09-25T07:03:31.820Z,99.90
2018-09-25T07:06:05.403Z,99.90
2018-09-25T07:08:38.959Z,99.90
2018-09-25T07:11:12.344Z,99.90
2018-09-25T07:13:45.754Z,99.90
2018-09-25T07:16:19.274Z,99.90
2018-09-25T07:18:53.306Z,99.90
2018-09-25T07:21:26.759Z,99.90
2018-09-25T07:24:00.211Z,99.90
2018-09-25T07:26:33.910Z,99.90
2018-09-25T07:29:07.500Z,99.90
2018-09-25T07:31:41.007Z,99.90
2018-09-25T07:34:14.476Z,99.90
2018-09-25T07:36:47.939Z,99.90
2018-09-25T07:39:21.255Z,99.90
2018-09-25T07:41:54.716Z,99.90
2018-09-25T07:44:28.334Z,99.90
2018-09-25T07:47:01.612Z,99.90
2018-09-25T07:49:35.244Z,99.90
2018-09-25T07:52:08.846Z,99.90
2018-09-25T07:54:42.274Z,99.90
2018-09-25T07:57:15.913Z,99.90
2018-09-25T07:59:49.581Z,99.90
2018-09-25T08:02:23.055Z,99.90
2018-09-25T08:04:56.670Z,99.90
2018-09-25T08:07:30.149Z,98.80
2018-09-25T08:10:03.601Z,98.10
2018-09-25T08:12:36.978Z,98.90
2018-09-25T08:15:10.542Z,97.40
2018-09-25T08:17:44.021Z,97.80
2018-09-25T08:20:17.570Z,98.30
2018-09-25T08:22:50.938Z,97.50
2018-09-25T08:25:24.498Z,97.70
2018-09-25T08:27:58.050Z,97.60
2018-09-25T08:30:31.663Z,98.50
2018-09-25T08:33:05.106Z,95.80
2018-09-25T08:35:38.409Z,95.80
2018-09-25T08:38:11.954Z,96.30
2018-09-25T08:40:45.497Z,96.00
2018-09-25T08:43:19.100Z,93.90
2018-09-25T08:45:52.835Z,92.30
2018-09-25T08:48:26.382Z,92.40
2018-09-25T08:51:00.045Z,92.50
2018-09-25T08:53:33.525Z,92.10
2018-09-25T08:56:07.022Z,92.70
2018-09-25T08:58:40.445Z,94.40
2018-09-25T09:01:13.818Z,90.10
2018-09-25T09:03:47.209Z,89.00
2018-09-25T09:06:20.647Z,84.70
2018-09-25T09:08:54.247Z,85.80
2018-09-25T09:11:27.722Z,83.60
2018-09-25T09:14:01.246Z,88.20
2018-09-25T09:16:34.677Z,85.60
2018-09-25T09:19:08.226Z,84.00
2018-09-25T09:21:41.754Z,78.60
2018-09-25T09:24:15.337Z,80.80
2018-09-25T09:26:48.734Z,76.20
2018-09-25T09:29:22.456Z,76.60
2018-09-25T09:31:56.042Z,75.50
2018-09-25T09:34:29.626Z,74.20
2018-09-25T09:37:03.070Z,69.90
2018-09-25T09:39:36.748Z,66.60
2018-09-25T09:42:10.193Z,64.90
2018-09-25T09:44:43.731Z,67.80
2018-09-25T09:47:17.219Z,62.10
2018-09-25T09:49:50.771Z,63.90
2018-09-25T09:52:24.247Z,65.30
2018-09-25T09:54:57.668Z,67.10
2018-09-25T09:57:31.095Z,76.40
2018-09-25T10:00:04.493Z,76.80
2018-09-25T10:02:38.045Z,83.90
2018-09-25T10:05:11.702Z,81.70
2018-09-25T10:07:45.186Z,76.70
2018-09-25T10:10:18.741Z,63.40
2018-09-25T10:12:52.063Z,60.80
2018-09-25T10:15:25.557Z,61.50
2018-09-25T10:17:58.985Z,60.80
2018-09-25T10:20:32.518Z,59.90
2018-09-25T10:23:06.113Z,63.50
2018-09-25T10:25:39.611Z,64.00
2018-09-25T10:28:13.096Z,62.10
2018-09-25T10:30:46.710Z,62.60
2018-09-25T10:33:20.282Z,60.50
2018-09-25T10:35:53.806Z,58.30
2018-09-25T10:38:27.382Z,58.50
2018-09-25T10:41:00.922Z,60.00
2018-09-25T10:43:34.320Z,52.70
2018-09-25T10:46:07.926Z,55.20
2018-09-25T10:48:41.423Z,56.00
2018-09-25T10:51:14.897Z,50.50
2018-09-25T10:53:48.501Z,51.80
2018-09-25T10:56:22.118Z,51.40
2018-09-25T10:58:55.430Z,52.10
2018-09-25T11:01:28.857Z,48.40
2018-09-25T11:04:02.413Z,53.40
2018-09-25T11:06:35.763Z,59.60
2018-09-25T11:09:10.494Z,60.00
2018-09-25T11:11:44.025Z,54.60
2018-09-25T11:14:17.461Z,54.70
2018-09-25T11:16:50.890Z,56.20
2018-09-25T11:19:31.162Z,53.50
2018-09-25T11:22:04.705Z,51.40
2018-09-25T11:24:38.232Z,48.90
2018-09-25T11:27:11.682Z,50.30
2018-09-25T11:29:44.977Z,56.30
2018-09-25T11:32:18.453Z,60.20
2018-09-25T11:34:51.878Z,53.70
2018-09-25T11:37:25.277Z,48.70
2018-09-25T11:39:58.650Z,45.20
2018-09-25T11:42:32.210Z,44.20
2018-09-25T11:45:05.765Z,48.30
2018-09-25T11:47:39.302Z,50.70
2018-09-25T11:50:12.721Z,51.20
2018-09-25T11:52:46.263Z,56.20
2018-09-25T11:55:19.650Z,62.90
2018-09-25T11:57:53.147Z,68.00
2018-09-25T12:00:26.793Z,63.00
2018-09-25T12:03:00.427Z,55.50
2018-09-25T12:05:34.005Z,51.10
2018-09-25T12:08:07.491Z,47.00
2018-09-25T12:10:40.969Z,46.80
2018-09-25T12:13:14.523Z,44.90
2018-09-25T12:15:48.073Z,42.50
2018-09-25T12:18:21.418Z,41.40
2018-09-25T12:20:55.026Z,43.80
2018-09-25T12:23:28.580Z,43.80
2018-09-25T12:26:02.050Z,47.20
2018-09-25T12:28:35.631Z,52.30
2018-09-25T12:31:09.022Z,54.10
2018-09-25T12:33:42.705Z,54.40
2018-09-25T12:36:16.219Z,54.30
2018-09-25T12:38:49.734Z,47.30
2018-09-25T12:41:23.173Z,43.40
2018-09-25T12:43:56.729Z,46.70
2018-09-25T12:46:30.302Z,52.80
2018-09-25T12:49:03.820Z,51.30
2018-09-25T12:51:37.339Z,48.90
2018-09-25T12:54:10.882Z,46.90
2018-09-25T12:56:44.369Z,42.20
2018-09-25T12:59:17.875Z,41.30
2018-09-25T13:01:51.473Z,43.40
2018-09-25T13:04:25.096Z,43.70
2018-09-25T13:06:58.481Z,41.50
2018-09-25T13:09:32.092Z,43.60
2018-09-25T13:12:05.716Z,40.10
2018-09-25T13:14:39.163Z,41.80
2018-09-25T13:17:12.774Z,42.90
2018-09-25T13:19:46.195Z,41.30
2018-09-25T13:22:19.833Z,40.20
2018-09-25T13:24:53.569Z,39.20
2018-09-25T13:27:27.149Z,37.40
2018-09-25T13:30:00.569Z,38.40
2018-09-25T13:32:34.138Z,40.00
2018-09-25T13:35:07.722Z,41.30
2018-09-25T13:37:41.297Z,40.80
2018-09-25T13:40:14.902Z,39.50
2018-09-25T13:42:48.217Z,41.20
2018-09-25T13:45:21.834Z,41.70
2018-09-25T13:47:55.089Z,41.60
2018-09-25T13:50:28.590Z,41.00
2018-09-25T13:53:02.027Z,38.90
2018-09-25T13:55:35.523Z,40.20
2018-09-25T13:58:08.882Z,39.50
2018-09-25T14:00:42.437Z,39.00
2018-09-25T14:03:15.892Z,39.20
2018-09-25T14:05:49.434Z,37.60
2018-09-25T14:08:22.873Z,39.00
2018-09-25T14:10:56.326Z,40.00
2018-09-25T14:13:29.805Z,38.70
2018-09-25T14:16:03.101Z,37.70
2018-09-25T14:18:36.665Z,38.50
2018-09-25T14:21:10.064Z,37.80
2018-09-25T14:23:43.640Z,39.40
2018-09-25T14:26:17.174Z,39.20
2018-09-25T14:28:50.593Z,39.50
2018-09-25T14:31:24.054Z,40.90
2018-09-25T14:33:57.456Z,43.00
2018-09-25T14:36:31.000Z,41.40
2018-09-25T14:39:04.435Z,42.90
2018-09-25T14:41:37.898Z,46.20
2018-09-25T14:44:11.443Z,49.60
2018-09-25T14:46:44.830Z,54.70
2018-09-25T14:49:18.215Z,57.40
2018-09-25T14:51:51.717Z,58.80
2018-09-25T14:54:25.353Z,60.70
2018-09-25T14:56:58.697Z,62.20
2018-09-25T14:59:32.154Z,63.20
2018-09-25T15:02:05.627Z,64.10
2018-09-25T15:04:39.101Z,64.90
2018-09-25T15:07:12.681Z,64.70
2018-09-25T15:09:46.126Z,66.00
2018-09-25T15:12:19.777Z,66.50
2018-09-25T15:14:53.190Z,66.90
2018-09-25T15:17:26.798Z,67.50
2018-09-25T15:20:00.345Z,67.90
2018-09-25T15:22:39.825Z,68.60
2018-09-25T15:25:13.323Z,68.30
2018-09-25T15:27:46.872Z,68.90
2018-09-25T15:30:20.406Z,68.60
2018-09-25T15:32:53.793Z,66.70
2018-09-25T15:35:27.420Z,65.50
2018-09-25T15:38:00.715Z,65.10
2018-09-25T15:40:34.387Z,65.90
2018-09-25T15:43:07.843Z,69.50
2018-09-25T15:45:41.303Z,67.30
2018-09-25T15:48:14.891Z,66.70
2018-09-25T15:50:48.341Z,67.10
2018-09-25T15:53:21.946Z,68.00
2018-09-25T15:55:55.378Z,70.80
2018-09-25T15:58:29.054Z,72.70
2018-09-25T16:01:02.481Z,72.20
2018-09-25T16:03:35.938Z,73.20
2018-09-25T16:06:09.514Z,73.80
2018-09-25T16:08:42.962Z,75.60
2018-09-25T16:11:16.915Z,76.00
2018-09-25T16:13:50.551Z,78.20
2018-09-25T16:16:24.134Z,79.20
2018-09-25T16:18:57.536Z,79.00
2018-09-25T16:21:31.070Z,79.80
2018-09-25T16:24:04.683Z,81.70
2018-09-25T16:26:38.298Z,84.40
2018-09-25T16:29:11.977Z,86.00
2018-09-25T16:31:45.558Z,88.00
2018-09-25T16:34:19.101Z,90.70
2018-09-25T16:36:52.623Z,91.20
2018-09-25T16:39:26.184Z,92.20
2018-09-25T16:41:59.610Z,93.40
2018-09-25T16:44:33.150Z,94.60
2018-09-25T16:47:06.643Z,95.80
2018-09-25T16:49:40.416Z,97.40
2018-09-25T16:52:13.991Z,99.30
2018-09-25T16:54:47.438Z,99.90
2018-09-25T16:57:21.002Z,99.90
2018-09-25T16:59:54.421Z,99.90
2018-09-25T17:02:27.892Z,99.90
2018-09-25T17:05:01.383Z,99.90
2018-09-25T17:07:34.716Z,99.90
2018-09-25T17:10:08.293Z,99.90
2018-09-25T17:12:41.681Z,99.90
2018-09-25T17:15:15.222Z,99.90
2018-09-25T17:17:48.639Z,99.90
2018-09-25T17:20:22.212Z,99.90
2018-09-25T17:22:55.684Z,99.90
2018-09-25T17:25:29.116Z,99.90
2018-09-25T17:28:02.525Z,99.90
2018-09-25T17:30:36.003Z,99.90
2018-09-25T17:33:09.470Z,99.90
2018-09-25T17:35:43.014Z,99.90
2018-09-25T17:38:16.410Z,99.90
2018-09-25T17:40:49.890Z,99.90
2018-09-25T17:43:23.502Z,99.90
2018-09-25T17:45:57.126Z,99.90
2018-09-25T17:48:30.619Z,99.90
2018-09-25T17:51:04.214Z,99.90
2018-09-25T17:53:37.774Z,99.90
2018-09-25T17:56:11.412Z,99.90
2018-09-25T17:58:44.874Z,99.90
2018-09-25T18:01:18.370Z,99.90
2018-09-25T18:03:51.950Z,99.90
2018-09-25T18:06:25.441Z,99.90
2018-09-25T18:08:59.015Z,99.90
2018-09-25T18:11:32.571Z,99.90
2018-09-25T18:14:06.024Z,99.90
2018-09-25T18:16:39.567Z,99.90
2018-09-25T18:19:13.264Z,99.90
2018-09-25T18:21:46.828Z,99.90
2018-09-25T18:24:20.336Z,99.90
2018-09-25T18:26:53.780Z,99.90
2018-09-25T18:29:27.131Z,99.90
2018-09-25T18:32:00.617Z,99.90
2018-09-25T18:34:34.155Z,99.90
2018-09-25T18:37:07.781Z,99.90
2018-09-25T18:39:41.358Z,99.90
2018-09-25T18:42:14.678Z,99.90
2018-09-25T18:44:48.239Z,99.90
2018-09-25T18:47:21.818Z,99.90
2018-09-25T18:49:55.412Z,99.90
2018-09-25T18:52:28.921Z,99.90
2018-09-25T18:55:02.368Z,99.90
2018-09-25T18:57:36.315Z,99.90
2018-09-25T19:00:09.924Z,99.90
2018-09-25T19:02:43.568Z,99.90
2018-09-25T19:05:17.090Z,99.90
2018-09-25T19:07:50.653Z,99.90
2018-09-25T19:10:24.222Z,99.90
2018-09-25T19:12:57.850Z,99.90
2018-09-25T19:15:31.327Z,99.90
2018-09-25T19:18:04.965Z,99.90
2018-09-25T19:20:38.531Z,99.90
2018-09-25T19:23:12.055Z,99.90
2018-09-25T19:25:45.693Z,99.90
2018-09-25T19:28:19.328Z,99.90
2018-09-25T19:30:52.599Z,99.90
2018-09-25T19:33:26.103Z,99.90
2018-09-25T19:35:59.602Z,99.90
2018-09-25T19:38:33.218Z,99.90
2018-09-25T19:41:06.666Z,99.90
2018-09-25T19:43:40.270Z,99.90
2018-09-25T19:46:13.705Z,99.90
2018-09-25T19:48:47.371Z,99.90
2018-09-25T19:51:20.930Z,99.90
2018-09-25T19:53:54.507Z,99.90
2018-09-25T19:56:28.075Z,99.90
2018-09-25T19:59:01.528Z,99.90
2018-09-25T20:01:35.071Z,99.90
2018-09-25T20:04:08.478Z,99.90
2018-09-25T20:06:42.087Z,99.90
2018-09-25T20:09:15.730Z,99.90
2018-09-25T20:11:49.293Z,99.90
2018-09-25T20:14:22.829Z,99.90
2018-09-25T20:16:56.254Z,99.90
2018-09-25T20:19:29.811Z,99.90
2018-09-25T20:22:03.147Z,99.90
2018-09-25T20:24:36.707Z,99.90
2018-09-25T20:27:10.156Z,99.90
2018-09-25T20:29:43.660Z,99.90
2018-09-25T20:32:17.139Z,99.90
2018-09-25T20:34:50.706Z,99.90
2018-09-25T20:37:24.200Z,99.90
2018-09-25T20:39:57.762Z,99.90
2018-09-25T20:42:31.175Z,99.90
2018-09-25T20:45:04.628Z,99.90
2018-09-25T20:47:38.097Z,99.90
2018-09-25T20:50:11.411Z,99.90
2018-09-25T20:52:44.983Z,99.90
2018-09-25T21:01:04.921Z,99.90
2018-09-25T21:03:38.390Z,99.90
2018-09-25T21:06:11.919Z,99.90
2018-09-25T21:08:45.550Z,99.90
2018-09-25T21:11:19.229Z,99.90
2018-09-25T21:13:52.735Z,99.90
2018-09-25T21:16:26.276Z,99.90
2018-09-25T21:18:59.738Z,99.90
2018-09-25T21:21:33.346Z,99.90
2018-09-25T21:24:06.682Z,99.90
2018-09-25T21:26:40.175Z,99.90
2018-09-25T21:29:13.735Z,99.90
2018-09-25T21:31:47.307Z,99.90
2018-09-25T21:34:20.965Z,99.90
2018-09-25T21:36:54.373Z,99.90
2018-09-25T21:39:27.850Z,99.90
2018-09-25T21:42:01.394Z,99.90
2018-09-25T21:44:34.765Z,99.90
2018-09-25T21:47:08.226Z,99.90
2018-09-25T21:49:41.848Z,99.90
2018-09-25T21:52:15.447Z,99.90
2018-09-25T21:54:48.867Z,99.90
2018-09-25T21:57:22.283Z,99.90
2018-09-25T21:59:55.663Z,99.90
2018-09-25T22:02:29.362Z,99.90
2018-09-25T22:05:02.923Z,99.90
2018-09-25T22:07:36.468Z,99.90
2018-09-25T22:10:10.000Z,99.90
2018-09-25T22:12:43.443Z,99.90
2018-09-25T22:15:16.955Z,99.90
2018-09-25T22:17:50.625Z,99.90
2018-09-25T22:20:24.148Z,99.90
2018-09-25T22:22:57.790Z,99.90
2018-09-25T22:25:31.329Z,99.90
2018-09-25T22:28:04.909Z,99.90
2018-09-25T22:30:38.538Z,99.90
2018-09-25T22:33:12.074Z,99.90
2018-09-25T22:35:45.579Z,99.90
2018-09-25T22:38:19.149Z,99.90
2018-09-25T22:40:52.718Z,99.90
2018-09-25T22:43:26.335Z,99.90
2018-09-25T22:45:59.806Z,99.90
2018-09-25T22:48:33.123Z,99.90
2018-09-25T22:51:06.545Z,99.90
2018-09-25T22:53:39.981Z,99.90
2018-09-25T22:56:13.428Z,99.90
2018-09-25T22:58:47.038Z,99.90
2018-09-25T23:01:20.566Z,99.90
2018-09-25T23:03:54.089Z,99.90
2018-09-25T23:06:27.539Z,99.90
2018-09-25T23:09:00.986Z,99.90
2018-09-25T23:11:34.580Z,99.90
2018-09-25T23:14:08.055Z,99.90
2018-09-25T23:16:41.632Z,99.90
2018-09-25T23:19:15.042Z,99.90
2018-09-25T23:21:48.521Z,99.90
2018-09-25T23:24:21.972Z,99.90
2018-09-25T23:26:55.542Z,99.90
2018-09-25T23:29:29.129Z,99.90
2018-09-25T23:32:02.711Z,99.90
2018-09-25T23:34:36.166Z,99.90
2018-09-25T23:37:09.843Z,99.90
2018-09-25T23:41:50.594Z,99.90
2018-09-25T23:44:25.791Z,99.90
2018-09-25T23:47:01.193Z,99.90
2018-09-25T23:49:36.632Z,99.90
2018-09-25T23:53:07.749Z,99.90
2018-09-25T23:55:45.030Z,99.90
2018-09-25T23:58:16.482Z,99.90
